sensor_id;sensor_type;location;lat;lon;timestamp;P1;durP1;ratioP1;P2;durP2;ratioP2
15878;SDS011;61999;51.514;14.614;2023-04-15T00:00:30;19.33;;;15.77;;
15878;SDS011;61999;51.514;14.614;2023-04-15T00:02:59;20.63;;;16.30;;
15878;SDS011;61999;51.514;14.614;2023-04-15T00:05:28;19.63;;;16.07;;
15878;SDS011;61999;51.514;14.614;2023-04-15T00:07:56;21.90;;;16.97;;
15878;SDS011;61999;51.514;14.614;2023-04-15T00:10:26;22.93;;;17.87;;
15878;SDS011;61999;51.514;14.614;2023-04-15T00:12:54;20.27;;;16.73;;
15878;SDS011;61999;51.514;14.614;2023-04-15T00:15:22;21.90;;;17.70;;
15878;SDS011;61999;51.514;14.614;2023-04-15T00:17:50;22.30;;;17.53;;
15878;SDS011;61999;51.514;14.614;2023-04-15T00:20:18;21.00;;;17.30;;
15878;SDS011;61999;51.514;14.614;2023-04-15T00:22:46;21.70;;;18.17;;
15878;SDS011;61999;51.514;14.614;2023-04-15T00:25:13;20.20;;;16.17;;
15878;SDS011;61999;51.514;14.614;2023-04-15T00:27:43;24.20;;;19.67;;
15878;SDS011;61999;51.514;14.614;2023-04-15T00:30:11;21.97;;;17.53;;
15878;SDS011;61999;51.514;14.614;2023-04-15T00:32:39;22.87;;;19.10;;
15878;SDS011;61999;51.514;14.614;2023-04-15T00:35:07;21.23;;;17.87;;
15878;SDS011;61999;51.514;14.614;2023-04-15T00:37:36;23.43;;;19.17;;
15878;SDS011;61999;51.514;14.614;2023-04-15T00:40:04;23.93;;;18.73;;
15878;SDS011;61999;51.514;14.614;2023-04-15T00:42:38;26.07;;;20.23;;
15878;SDS011;61999;51.514;14.614;2023-04-15T00:45:07;24.53;;;19.47;;
15878;SDS011;61999;51.514;14.614;2023-04-15T00:47:36;23.33;;;19.60;;
15878;SDS011;61999;51.514;14.614;2023-04-15T00:50:08;23.23;;;19.17;;
15878;SDS011;61999;51.514;14.614;2023-04-15T00:52:36;23.87;;;18.87;;
15878;SDS011;61999;51.514;14.614;2023-04-15T00:55:05;25.53;;;20.40;;
15878;SDS011;61999;51.514;14.614;2023-04-15T00:57:34;25.17;;;20.20;;
15878;SDS011;61999;51.514;14.614;2023-04-15T01:00:03;24.67;;;19.83;;
15878;SDS011;61999;51.514;14.614;2023-04-15T01:02:36;26.03;;;19.63;;
15878;SDS011;61999;51.514;14.614;2023-04-15T01:05:05;22.90;;;18.73;;
15878;SDS011;61999;51.514;14.614;2023-04-15T01:07:33;23.43;;;19.33;;
15878;SDS011;61999;51.514;14.614;2023-04-15T01:10:02;26.43;;;20.70;;
15878;SDS011;61999;51.514;14.614;2023-04-15T01:12:31;27.53;;;22.03;;
15878;SDS011;61999;51.514;14.614;2023-04-15T01:15:00;28.97;;;21.83;;
15878;SDS011;61999;51.514;14.614;2023-04-15T01:17:30;27.77;;;22.00;;
15878;SDS011;61999;51.514;14.614;2023-04-15T01:19:58;26.73;;;21.83;;
15878;SDS011;61999;51.514;14.614;2023-04-15T01:22:26;27.13;;;21.57;;
15878;SDS011;61999;51.514;14.614;2023-04-15T01:24:56;28.60;;;21.03;;
15878;SDS011;61999;51.514;14.614;2023-04-15T01:27:34;27.83;;;21.77;;
15878;SDS011;61999;51.514;14.614;2023-04-15T01:30:05;26.70;;;21.93;;
15878;SDS011;61999;51.514;14.614;2023-04-15T01:32:35;26.07;;;20.83;;
15878;SDS011;61999;51.514;14.614;2023-04-15T01:35:04;24.63;;;20.33;;
15878;SDS011;61999;51.514;14.614;2023-04-15T01:37:33;27.83;;;22.87;;
15878;SDS011;61999;51.514;14.614;2023-04-15T01:40:03;25.17;;;21.10;;
15878;SDS011;61999;51.514;14.614;2023-04-15T01:42:35;26.80;;;21.27;;
15878;SDS011;61999;51.514;14.614;2023-04-15T01:45:03;27.83;;;23.17;;
15878;SDS011;61999;51.514;14.614;2023-04-15T01:47:33;23.57;;;20.50;;
15878;SDS011;61999;51.514;14.614;2023-04-15T01:50:01;22.73;;;19.27;;
15878;SDS011;61999;51.514;14.614;2023-04-15T01:52:29;29.57;;;23.30;;
15878;SDS011;61999;51.514;14.614;2023-04-15T01:54:57;25.53;;;21.57;;
15878;SDS011;61999;51.514;14.614;2023-04-15T01:57:25;23.13;;;19.27;;
15878;SDS011;61999;51.514;14.614;2023-04-15T01:59:54;24.13;;;18.80;;
15878;SDS011;61999;51.514;14.614;2023-04-15T02:02:22;26.60;;;20.30;;
15878;SDS011;61999;51.514;14.614;2023-04-15T02:04:50;25.13;;;19.97;;
15878;SDS011;61999;51.514;14.614;2023-04-15T02:07:18;20.53;;;17.83;;
15878;SDS011;61999;51.514;14.614;2023-04-15T02:09:47;23.33;;;19.30;;
15878;SDS011;61999;51.514;14.614;2023-04-15T02:12:14;22.97;;;19.50;;
15878;SDS011;61999;51.514;14.614;2023-04-15T02:14:42;23.53;;;20.03;;
15878;SDS011;61999;51.514;14.614;2023-04-15T02:17:11;22.30;;;18.63;;
15878;SDS011;61999;51.514;14.614;2023-04-15T02:19:39;22.60;;;18.30;;
15878;SDS011;61999;51.514;14.614;2023-04-15T02:22:07;25.13;;;20.90;;
15878;SDS011;61999;51.514;14.614;2023-04-15T02:24:36;20.80;;;17.83;;
15878;SDS011;61999;51.514;14.614;2023-04-15T02:27:04;20.57;;;18.27;;
15878;SDS011;61999;51.514;14.614;2023-04-15T02:29:32;19.20;;;17.17;;
15878;SDS011;61999;51.514;14.614;2023-04-15T02:31:59;20.40;;;17.97;;
15878;SDS011;61999;51.514;14.614;2023-04-15T02:34:29;24.53;;;19.87;;
15878;SDS011;61999;51.514;14.614;2023-04-15T02:36:58;24.30;;;19.90;;
15878;SDS011;61999;51.514;14.614;2023-04-15T02:39:26;25.40;;;21.40;;
15878;SDS011;61999;51.514;14.614;2023-04-15T02:41:54;22.33;;;19.63;;
15878;SDS011;61999;51.514;14.614;2023-04-15T02:44:24;22.30;;;18.83;;
15878;SDS011;61999;51.514;14.614;2023-04-15T02:46:52;21.33;;;18.40;;
15878;SDS011;61999;51.514;14.614;2023-04-15T02:49:20;19.77;;;17.67;;
15878;SDS011;61999;51.514;14.614;2023-04-15T02:51:50;23.03;;;19.53;;
15878;SDS011;61999;51.514;14.614;2023-04-15T02:54:18;22.30;;;18.90;;
15878;SDS011;61999;51.514;14.614;2023-04-15T02:56:48;22.90;;;18.80;;
15878;SDS011;61999;51.514;14.614;2023-04-15T02:59:16;22.00;;;19.20;;
15878;SDS011;61999;51.514;14.614;2023-04-15T03:01:43;21.90;;;19.47;;
15878;SDS011;61999;51.514;14.614;2023-04-15T03:04:11;22.07;;;18.30;;
15878;SDS011;61999;51.514;14.614;2023-04-15T03:06:39;24.87;;;18.90;;
15878;SDS011;61999;51.514;14.614;2023-04-15T03:09:08;22.83;;;18.60;;
15878;SDS011;61999;51.514;14.614;2023-04-15T03:11:37;21.53;;;18.47;;
15878;SDS011;61999;51.514;14.614;2023-04-15T03:14:07;20.57;;;17.80;;
15878;SDS011;61999;51.514;14.614;2023-04-15T03:16:35;21.67;;;18.63;;
15878;SDS011;61999;51.514;14.614;2023-04-15T03:19:02;20.77;;;18.37;;
15878;SDS011;61999;51.514;14.614;2023-04-15T03:21:30;18.87;;;16.63;;
15878;SDS011;61999;51.514;14.614;2023-04-15T03:23:58;19.57;;;16.93;;
15878;SDS011;61999;51.514;14.614;2023-04-15T03:26:28;18.20;;;16.20;;
15878;SDS011;61999;51.514;14.614;2023-04-15T03:28:57;18.73;;;16.77;;
15878;SDS011;61999;51.514;14.614;2023-04-15T03:31:25;17.50;;;15.77;;
15878;SDS011;61999;51.514;14.614;2023-04-15T03:33:53;18.30;;;16.33;;
15878;SDS011;61999;51.514;14.614;2023-04-15T03:36:21;20.37;;;15.03;;
15878;SDS011;61999;51.514;14.614;2023-04-15T03:38:49;17.40;;;15.47;;
15878;SDS011;61999;51.514;14.614;2023-04-15T03:41:18;16.70;;;14.90;;
15878;SDS011;61999;51.514;14.614;2023-04-15T03:43:48;19.03;;;15.23;;
15878;SDS011;61999;51.514;14.614;2023-04-15T03:46:17;16.43;;;14.73;;
15878;SDS011;61999;51.514;14.614;2023-04-15T03:48:45;17.57;;;15.67;;
15878;SDS011;61999;51.514;14.614;2023-04-15T03:51:13;16.87;;;15.07;;
15878;SDS011;61999;51.514;14.614;2023-04-15T03:53:41;18.33;;;15.70;;
15878;SDS011;61999;51.514;14.614;2023-04-15T03:56:09;16.00;;;14.20;;
15878;SDS011;61999;51.514;14.614;2023-04-15T03:58:37;14.33;;;12.83;;
15878;SDS011;61999;51.514;14.614;2023-04-15T04:01:06;13.23;;;11.83;;
15878;SDS011;61999;51.514;14.614;2023-04-15T04:03:34;14.90;;;13.27;;
15878;SDS011;61999;51.514;14.614;2023-04-15T04:06:02;14.60;;;12.97;;
15878;SDS011;61999;51.514;14.614;2023-04-15T04:08:30;14.17;;;12.63;;
15878;SDS011;61999;51.514;14.614;2023-04-15T04:10:58;14.97;;;13.37;;
15878;SDS011;61999;51.514;14.614;2023-04-15T04:13:26;13.93;;;12.53;;
15878;SDS011;61999;51.514;14.614;2023-04-15T04:15:53;13.70;;;11.87;;
15878;SDS011;61999;51.514;14.614;2023-04-15T04:18:23;13.40;;;11.50;;
15878;SDS011;61999;51.514;14.614;2023-04-15T04:20:50;13.77;;;11.57;;
15878;SDS011;61999;51.514;14.614;2023-04-15T04:23:18;12.90;;;11.20;;
15878;SDS011;61999;51.514;14.614;2023-04-15T04:25:46;12.13;;;10.93;;
15878;SDS011;61999;51.514;14.614;2023-04-15T04:28:15;12.57;;;11.17;;
15878;SDS011;61999;51.514;14.614;2023-04-15T04:30:42;13.70;;;12.20;;
15878;SDS011;61999;51.514;14.614;2023-04-15T04:33:11;12.40;;;11.27;;
15878;SDS011;61999;51.514;14.614;2023-04-15T04:35:40;13.10;;;11.73;;
15878;SDS011;61999;51.514;14.614;2023-04-15T04:38:08;15.73;;;11.60;;
15878;SDS011;61999;51.514;14.614;2023-04-15T04:40:36;13.03;;;11.70;;
15878;SDS011;61999;51.514;14.614;2023-04-15T04:43:04;13.20;;;11.90;;
15878;SDS011;61999;51.514;14.614;2023-04-15T04:45:31;12.30;;;11.07;;
15878;SDS011;61999;51.514;14.614;2023-04-15T04:47:59;12.37;;;11.17;;
15878;SDS011;61999;51.514;14.614;2023-04-15T04:50:27;12.73;;;11.47;;
15878;SDS011;61999;51.514;14.614;2023-04-15T04:52:56;12.10;;;10.93;;
15878;SDS011;61999;51.514;14.614;2023-04-15T04:55:27;13.43;;;12.03;;
15878;SDS011;61999;51.514;14.614;2023-04-15T04:57:54;13.23;;;11.87;;
15878;SDS011;61999;51.514;14.614;2023-04-15T05:00:22;12.70;;;11.50;;
15878;SDS011;61999;51.514;14.614;2023-04-15T05:02:50;12.63;;;11.33;;
15878;SDS011;61999;51.514;14.614;2023-04-15T05:05:18;13.27;;;11.27;;
15878;SDS011;61999;51.514;14.614;2023-04-15T05:07:46;12.60;;;11.30;;
15878;SDS011;61999;51.514;14.614;2023-04-15T05:10:17;13.43;;;12.13;;
15878;SDS011;61999;51.514;14.614;2023-04-15T05:12:44;11.37;;;10.37;;
15878;SDS011;61999;51.514;14.614;2023-04-15T05:15:12;13.50;;;12.20;;
15878;SDS011;61999;51.514;14.614;2023-04-15T05:17:40;12.27;;;10.97;;
15878;SDS011;61999;51.514;14.614;2023-04-15T05:20:08;13.50;;;11.63;;
15878;SDS011;61999;51.514;14.614;2023-04-15T05:22:37;13.20;;;11.90;;
15878;SDS011;61999;51.514;14.614;2023-04-15T05:25:06;11.83;;;10.73;;
15878;SDS011;61999;51.514;14.614;2023-04-15T05:27:36;13.50;;;12.20;;
15878;SDS011;61999;51.514;14.614;2023-04-15T05:30:04;12.33;;;11.23;;
15878;SDS011;61999;51.514;14.614;2023-04-15T05:32:34;12.60;;;11.40;;
15878;SDS011;61999;51.514;14.614;2023-04-15T05:35:01;12.70;;;11.40;;
15878;SDS011;61999;51.514;14.614;2023-04-15T05:37:30;12.73;;;11.47;;
15878;SDS011;61999;51.514;14.614;2023-04-15T05:39:58;11.97;;;10.87;;
15878;SDS011;61999;51.514;14.614;2023-04-15T05:42:26;13.50;;;12.00;;
15878;SDS011;61999;51.514;14.614;2023-04-15T05:44:55;12.47;;;11.17;;
15878;SDS011;61999;51.514;14.614;2023-04-15T05:47:23;12.20;;;10.87;;
15878;SDS011;61999;51.514;14.614;2023-04-15T05:49:51;13.23;;;12.03;;
15878;SDS011;61999;51.514;14.614;2023-04-15T05:52:20;13.23;;;11.93;;
15878;SDS011;61999;51.514;14.614;2023-04-15T05:54:48;12.37;;;11.07;;
15878;SDS011;61999;51.514;14.614;2023-04-15T05:57:16;11.53;;;10.47;;
15878;SDS011;61999;51.514;14.614;2023-04-15T05:59:44;12.97;;;11.77;;
15878;SDS011;61999;51.514;14.614;2023-04-15T06:02:13;12.00;;;10.80;;
15878;SDS011;61999;51.514;14.614;2023-04-15T06:04:41;12.30;;;10.90;;
15878;SDS011;61999;51.514;14.614;2023-04-15T06:07:11;12.63;;;11.30;;
15878;SDS011;61999;51.514;14.614;2023-04-15T06:09:39;12.03;;;10.83;;
15878;SDS011;61999;51.514;14.614;2023-04-15T06:12:07;11.80;;;10.60;;
15878;SDS011;61999;51.514;14.614;2023-04-15T06:14:37;12.80;;;11.60;;
15878;SDS011;61999;51.514;14.614;2023-04-15T06:17:05;11.57;;;10.43;;
15878;SDS011;61999;51.514;14.614;2023-04-15T06:19:35;11.63;;;10.53;;
15878;SDS011;61999;51.514;14.614;2023-04-15T06:22:03;12.50;;;11.33;;
15878;SDS011;61999;51.514;14.614;2023-04-15T06:24:32;12.47;;;11.23;;
15878;SDS011;61999;51.514;14.614;2023-04-15T06:27:02;11.70;;;10.60;;
15878;SDS011;61999;51.514;14.614;2023-04-15T06:29:30;10.80;;;9.70;;
15878;SDS011;61999;51.514;14.614;2023-04-15T06:31:58;10.87;;;9.97;;
15878;SDS011;61999;51.514;14.614;2023-04-15T06:34:25;11.27;;;10.27;;
15878;SDS011;61999;51.514;14.614;2023-04-15T06:36:54;10.77;;;9.87;;
15878;SDS011;61999;51.514;14.614;2023-04-15T06:39:22;12.53;;;11.43;;
15878;SDS011;61999;51.514;14.614;2023-04-15T06:41:50;12.27;;;11.17;;
15878;SDS011;61999;51.514;14.614;2023-04-15T06:44:18;11.33;;;10.33;;
15878;SDS011;61999;51.514;14.614;2023-04-15T06:46:46;12.43;;;11.33;;
15878;SDS011;61999;51.514;14.614;2023-04-15T06:49:14;11.60;;;10.43;;
15878;SDS011;61999;51.514;14.614;2023-04-15T06:51:42;7.00;;;6.37;;
15878;SDS011;61999;51.514;14.614;2023-04-15T06:54:11;6.13;;;5.53;;
15878;SDS011;61999;51.514;14.614;2023-04-15T06:56:39;5.23;;;4.83;;
15878;SDS011;61999;51.514;14.614;2023-04-15T06:59:07;4.37;;;4.00;;
15878;SDS011;61999;51.514;14.614;2023-04-15T07:01:35;3.77;;;3.47;;
15878;SDS011;61999;51.514;14.614;2023-04-15T07:04:03;3.43;;;2.50;;
15878;SDS011;61999;51.514;14.614;2023-04-15T07:06:31;3.70;;;3.10;;
15878;SDS011;61999;51.514;14.614;2023-04-15T07:08:59;3.60;;;3.27;;
15878;SDS011;61999;51.514;14.614;2023-04-15T07:11:29;2.70;;;2.50;;
15878;SDS011;61999;51.514;14.614;2023-04-15T07:13:57;2.87;;;2.60;;
15878;SDS011;61999;51.514;14.614;2023-04-15T07:16:25;2.20;;;2.10;;
15878;SDS011;61999;51.514;14.614;2023-04-15T07:18:53;2.70;;;2.50;;
15878;SDS011;61999;51.514;14.614;2023-04-15T07:21:22;2.10;;;2.00;;
15878;SDS011;61999;51.514;14.614;2023-04-15T07:23:52;2.40;;;2.00;;
15878;SDS011;61999;51.514;14.614;2023-04-15T07:26:20;1.77;;;1.63;;
15878;SDS011;61999;51.514;14.614;2023-04-15T07:28:49;1.77;;;1.67;;
15878;SDS011;61999;51.514;14.614;2023-04-15T07:31:17;1.60;;;1.50;;
15878;SDS011;61999;51.514;14.614;2023-04-15T07:33:45;1.60;;;1.50;;
15878;SDS011;61999;51.514;14.614;2023-04-15T07:36:13;1.50;;;1.40;;
15878;SDS011;61999;51.514;14.614;2023-04-15T07:38:41;1.33;;;1.30;;
15878;SDS011;61999;51.514;14.614;2023-04-15T07:41:09;1.83;;;1.20;;
15878;SDS011;61999;51.514;14.614;2023-04-15T07:43:37;3.77;;;2.83;;
15878;SDS011;61999;51.514;14.614;2023-04-15T07:46:06;3.70;;;3.40;;
15878;SDS011;61999;51.514;14.614;2023-04-15T07:48:34;6.03;;;5.53;;
15878;SDS011;61999;51.514;14.614;2023-04-15T07:51:02;2.43;;;2.33;;
15878;SDS011;61999;51.514;14.614;2023-04-15T07:53:31;1.87;;;1.77;;
15878;SDS011;61999;51.514;14.614;2023-04-15T07:55:59;1.20;;;1.17;;
15878;SDS011;61999;51.514;14.614;2023-04-15T07:58:26;3.03;;;1.57;;
15878;SDS011;61999;51.514;14.614;2023-04-15T08:00:55;1.30;;;1.20;;
15878;SDS011;61999;51.514;14.614;2023-04-15T08:03:24;1.20;;;1.10;;
15878;SDS011;61999;51.514;14.614;2023-04-15T08:05:52;1.60;;;1.50;;
15878;SDS011;61999;51.514;14.614;2023-04-15T08:08:20;2.10;;;1.80;;
15878;SDS011;61999;51.514;14.614;2023-04-15T08:10:48;2.37;;;1.53;;
15878;SDS011;61999;51.514;14.614;2023-04-15T08:13:17;1.63;;;1.50;;
15878;SDS011;61999;51.514;14.614;2023-04-15T08:15:52;2.67;;;2.47;;
15878;SDS011;61999;51.514;14.614;2023-04-15T08:18:42;1.90;;;1.80;;
15878;SDS011;61999;51.514;14.614;2023-04-15T08:21:10;2.17;;;2.07;;
15878;SDS011;61999;51.514;14.614;2023-04-15T08:23:38;2.07;;;1.97;;
15878;SDS011;61999;51.514;14.614;2023-04-15T08:26:06;1.90;;;1.73;;
15878;SDS011;61999;51.514;14.614;2023-04-15T08:28:35;2.13;;;1.93;;
15878;SDS011;61999;51.514;14.614;2023-04-15T08:31:04;1.57;;;1.47;;
15878;SDS011;61999;51.514;14.614;2023-04-15T08:33:32;1.60;;;1.50;;
15878;SDS011;61999;51.514;14.614;2023-04-15T08:36:02;2.10;;;1.67;;
15878;SDS011;61999;51.514;14.614;2023-04-15T08:38:31;2.20;;;1.67;;
15878;SDS011;61999;51.514;14.614;2023-04-15T08:40:59;1.43;;;1.33;;
15878;SDS011;61999;51.514;14.614;2023-04-15T08:43:33;2.60;;;2.40;;
15878;SDS011;61999;51.514;14.614;2023-04-15T08:46:10;2.03;;;1.93;;
15878;SDS011;61999;51.514;14.614;2023-04-15T08:48:39;1.97;;;1.87;;
15878;SDS011;61999;51.514;14.614;2023-04-15T08:51:10;3.47;;;2.20;;
15878;SDS011;61999;51.514;14.614;2023-04-15T08:53:41;2.87;;;2.50;;
15878;SDS011;61999;51.514;14.614;2023-04-15T08:56:11;3.37;;;3.07;;
15878;SDS011;61999;51.514;14.614;2023-04-15T08:58:42;4.77;;;2.43;;
15878;SDS011;61999;51.514;14.614;2023-04-15T09:01:11;3.17;;;2.53;;
15878;SDS011;61999;51.514;14.614;2023-04-15T09:03:39;2.63;;;2.43;;
15878;SDS011;61999;51.514;14.614;2023-04-15T09:06:10;4.67;;;3.10;;
15878;SDS011;61999;51.514;14.614;2023-04-15T09:08:38;3.50;;;3.20;;
15878;SDS011;61999;51.514;14.614;2023-04-15T09:11:06;3.67;;;3.20;;
15878;SDS011;61999;51.514;14.614;2023-04-15T09:13:34;3.00;;;2.80;;
15878;SDS011;61999;51.514;14.614;2023-04-15T09:16:02;2.70;;;2.50;;
15878;SDS011;61999;51.514;14.614;2023-04-15T09:18:33;3.10;;;2.90;;
15878;SDS011;61999;51.514;14.614;2023-04-15T09:21:03;2.90;;;2.60;;
15878;SDS011;61999;51.514;14.614;2023-04-15T09:23:35;2.90;;;2.70;;
15878;SDS011;61999;51.514;14.614;2023-04-15T09:26:04;3.40;;;3.10;;
15878;SDS011;61999;51.514;14.614;2023-04-15T09:28:33;3.67;;;3.37;;
15878;SDS011;61999;51.514;14.614;2023-04-15T09:31:08;3.07;;;2.87;;
15878;SDS011;61999;51.514;14.614;2023-04-15T09:33:53;3.60;;;3.30;;
15878;SDS011;61999;51.514;14.614;2023-04-15T09:36:22;3.10;;;2.80;;
15878;SDS011;61999;51.514;14.614;2023-04-15T09:38:56;4.03;;;3.73;;
15878;SDS011;61999;51.514;14.614;2023-04-15T09:41:26;4.03;;;3.73;;
15878;SDS011;61999;51.514;14.614;2023-04-15T09:43:55;3.70;;;3.40;;
15878;SDS011;61999;51.514;14.614;2023-04-15T09:49:09;3.63;;;3.33;;
15878;SDS011;61999;51.514;14.614;2023-04-15T09:51:38;3.37;;;3.17;;
15878;SDS011;61999;51.514;14.614;2023-04-15T09:54:08;3.57;;;3.27;;
15878;SDS011;61999;51.514;14.614;2023-04-15T09:56:37;3.60;;;3.30;;
15878;SDS011;61999;51.514;14.614;2023-04-15T09:59:07;3.20;;;3.00;;
15878;SDS011;61999;51.514;14.614;2023-04-15T10:01:35;3.50;;;3.13;;
15878;SDS011;61999;51.514;14.614;2023-04-15T10:04:06;4.03;;;3.20;;
15878;SDS011;61999;51.514;14.614;2023-04-15T10:06:36;3.27;;;2.97;;
15878;SDS011;61999;51.514;14.614;2023-04-15T10:09:06;3.60;;;2.67;;
15878;SDS011;61999;51.514;14.614;2023-04-15T10:11:36;3.27;;;2.97;;
15878;SDS011;61999;51.514;14.614;2023-04-15T10:14:04;3.53;;;3.23;;
15878;SDS011;61999;51.514;14.614;2023-04-15T10:16:35;2.93;;;2.67;;
15878;SDS011;61999;51.514;14.614;2023-04-15T10:19:07;2.80;;;2.60;;
15878;SDS011;61999;51.514;14.614;2023-04-15T10:21:37;2.97;;;2.77;;
15878;SDS011;61999;51.514;14.614;2023-04-15T10:24:07;3.57;;;2.90;;
15878;SDS011;61999;51.514;14.614;2023-04-15T10:26:37;3.57;;;3.27;;
15878;SDS011;61999;51.514;14.614;2023-04-15T10:29:05;3.80;;;3.40;;
15878;SDS011;61999;51.514;14.614;2023-04-15T10:31:34;3.43;;;3.13;;
15878;SDS011;61999;51.514;14.614;2023-04-15T10:34:04;3.10;;;2.90;;
15878;SDS011;61999;51.514;14.614;2023-04-15T10:36:33;3.27;;;3.00;;
15878;SDS011;61999;51.514;14.614;2023-04-15T10:39:01;4.00;;;3.47;;
15878;SDS011;61999;51.514;14.614;2023-04-15T10:41:33;3.87;;;3.50;;
15878;SDS011;61999;51.514;14.614;2023-04-15T10:44:03;2.57;;;2.37;;
15878;SDS011;61999;51.514;14.614;2023-04-15T10:46:36;3.07;;;2.57;;
15878;SDS011;61999;51.514;14.614;2023-04-15T10:49:06;3.00;;;2.80;;
15878;SDS011;61999;51.514;14.614;2023-04-15T10:51:37;2.57;;;2.37;;
15878;SDS011;61999;51.514;14.614;2023-04-15T10:54:08;3.40;;;2.80;;
15878;SDS011;61999;51.514;14.614;2023-04-15T10:56:44;3.53;;;2.30;;
15878;SDS011;61999;51.514;14.614;2023-04-15T10:59:17;1.87;;;1.77;;
15878;SDS011;61999;51.514;14.614;2023-04-15T11:01:49;2.30;;;2.10;;
15878;SDS011;61999;51.514;14.614;2023-04-15T11:07:32;2.53;;;2.03;;
15878;SDS011;61999;51.514;14.614;2023-04-15T11:10:02;2.67;;;2.20;;
15878;SDS011;61999;51.514;14.614;2023-04-15T11:12:53;2.80;;;2.60;;
15878;SDS011;61999;51.514;14.614;2023-04-15T11:15:24;2.90;;;2.60;;
15878;SDS011;61999;51.514;14.614;2023-04-15T11:17:56;2.77;;;2.57;;
15878;SDS011;61999;51.514;14.614;2023-04-15T11:20:26;2.27;;;2.17;;
15878;SDS011;61999;51.514;14.614;2023-04-15T11:22:54;2.90;;;2.70;;
15878;SDS011;61999;51.514;14.614;2023-04-15T11:25:22;4.50;;;4.20;;
15878;SDS011;61999;51.514;14.614;2023-04-15T11:27:52;4.87;;;4.43;;
15878;SDS011;61999;51.514;14.614;2023-04-15T11:30:23;2.60;;;2.40;;
15878;SDS011;61999;51.514;14.614;2023-04-15T11:32:54;4.77;;;3.60;;
15878;SDS011;61999;51.514;14.614;2023-04-15T11:35:26;3.67;;;2.47;;
15878;SDS011;61999;51.514;14.614;2023-04-15T11:37:54;2.23;;;2.03;;
15878;SDS011;61999;51.514;14.614;2023-04-15T11:40:24;2.67;;;2.47;;
15878;SDS011;61999;51.514;14.614;2023-04-15T11:43:04;3.70;;;3.30;;
15878;SDS011;61999;51.514;14.614;2023-04-15T11:45:33;2.80;;;2.60;;
15878;SDS011;61999;51.514;14.614;2023-04-15T11:48:06;3.60;;;2.60;;
15878;SDS011;61999;51.514;14.614;2023-04-15T11:50:36;3.10;;;2.37;;
15878;SDS011;61999;51.514;14.614;2023-04-15T11:53:07;5.20;;;2.50;;
15878;SDS011;61999;51.514;14.614;2023-04-15T11:55:41;3.30;;;2.80;;
15878;SDS011;61999;51.514;14.614;2023-04-15T11:58:13;4.53;;;3.77;;
15878;SDS011;61999;51.514;14.614;2023-04-15T12:00:46;2.37;;;2.17;;
15878;SDS011;61999;51.514;14.614;2023-04-15T12:03:20;3.00;;;2.40;;
15878;SDS011;61999;51.514;14.614;2023-04-15T12:06:09;2.63;;;2.30;;
15878;SDS011;61999;51.514;14.614;2023-04-15T12:08:57;2.37;;;2.17;;
15878;SDS011;61999;51.514;14.614;2023-04-15T12:11:35;3.03;;;2.83;;
15878;SDS011;61999;51.514;14.614;2023-04-15T12:14:12;2.60;;;2.40;;
15878;SDS011;61999;51.514;14.614;2023-04-15T12:16:48;3.17;;;2.77;;
15878;SDS011;61999;51.514;14.614;2023-04-15T12:19:21;3.40;;;3.10;;
15878;SDS011;61999;51.514;14.614;2023-04-15T12:21:52;2.70;;;2.50;;
15878;SDS011;61999;51.514;14.614;2023-04-15T12:24:25;5.07;;;3.83;;
15878;SDS011;61999;51.514;14.614;2023-04-15T12:26:54;3.07;;;2.43;;
15878;SDS011;61999;51.514;14.614;2023-04-15T12:29:26;2.37;;;2.27;;
15878;SDS011;61999;51.514;14.614;2023-04-15T12:31:56;2.40;;;2.27;;
15878;SDS011;61999;51.514;14.614;2023-04-15T12:34:30;2.93;;;2.73;;
15878;SDS011;61999;51.514;14.614;2023-04-15T12:37:01;2.50;;;2.30;;
15878;SDS011;61999;51.514;14.614;2023-04-15T12:39:33;6.67;;;4.50;;
15878;SDS011;61999;51.514;14.614;2023-04-15T12:42:03;3.07;;;2.40;;
15878;SDS011;61999;51.514;14.614;2023-04-15T12:44:34;3.53;;;2.93;;
15878;SDS011;61999;51.514;14.614;2023-04-15T12:47:03;3.20;;;2.67;;
15878;SDS011;61999;51.514;14.614;2023-04-15T12:49:35;2.77;;;2.57;;
15878;SDS011;61999;51.514;14.614;2023-04-15T12:52:04;2.70;;;2.50;;
15878;SDS011;61999;51.514;14.614;2023-04-15T12:54:32;5.17;;;3.30;;
15878;SDS011;61999;51.514;14.614;2023-04-15T12:57:01;3.40;;;3.10;;
15878;SDS011;61999;51.514;14.614;2023-04-15T12:59:31;4.50;;;3.70;;
15878;SDS011;61999;51.514;14.614;2023-04-15T13:02:02;3.10;;;2.80;;
15878;SDS011;61999;51.514;14.614;2023-04-15T13:04:30;2.60;;;2.40;;
15878;SDS011;61999;51.514;14.614;2023-04-15T13:06:58;2.47;;;2.27;;
15878;SDS011;61999;51.514;14.614;2023-04-15T13:09:27;3.23;;;2.37;;
15878;SDS011;61999;51.514;14.614;2023-04-15T13:11:56;3.00;;;2.70;;
15878;SDS011;61999;51.514;14.614;2023-04-15T13:14:24;3.10;;;2.60;;
15878;SDS011;61999;51.514;14.614;2023-04-15T13:16:53;2.90;;;2.60;;
15878;SDS011;61999;51.514;14.614;2023-04-15T13:19:22;2.37;;;2.17;;
15878;SDS011;61999;51.514;14.614;2023-04-15T13:21:50;2.97;;;2.77;;
15878;SDS011;61999;51.514;14.614;2023-04-15T13:24:18;2.90;;;2.50;;
15878;SDS011;61999;51.514;14.614;2023-04-15T13:26:46;3.87;;;2.83;;
15878;SDS011;61999;51.514;14.614;2023-04-15T13:29:14;2.33;;;2.13;;
15878;SDS011;61999;51.514;14.614;2023-04-15T13:31:42;2.10;;;2.00;;
15878;SDS011;61999;51.514;14.614;2023-04-15T13:34:12;2.37;;;1.93;;
15878;SDS011;61999;51.514;14.614;2023-04-15T13:36:40;2.37;;;2.17;;
15878;SDS011;61999;51.514;14.614;2023-04-15T13:39:08;2.83;;;2.63;;
15878;SDS011;61999;51.514;14.614;2023-04-15T13:41:36;2.43;;;2.20;;
15878;SDS011;61999;51.514;14.614;2023-04-15T13:44:03;2.53;;;2.33;;
15878;SDS011;61999;51.514;14.614;2023-04-15T13:46:32;6.23;;;3.63;;
15878;SDS011;61999;51.514;14.614;2023-04-15T13:49:00;2.83;;;2.53;;
15878;SDS011;61999;51.514;14.614;2023-04-15T13:51:29;3.20;;;2.20;;
15878;SDS011;61999;51.514;14.614;2023-04-15T13:53:58;2.23;;;2.10;;
15878;SDS011;61999;51.514;14.614;2023-04-15T13:56:26;2.60;;;2.40;;
15878;SDS011;61999;51.514;14.614;2023-04-15T13:58:53;3.03;;;2.73;;
15878;SDS011;61999;51.514;14.614;2023-04-15T14:01:24;2.23;;;2.10;;
15878;SDS011;61999;51.514;14.614;2023-04-15T14:03:52;2.90;;;2.70;;
15878;SDS011;61999;51.514;14.614;2023-04-15T14:06:20;2.90;;;2.60;;
15878;SDS011;61999;51.514;14.614;2023-04-15T14:08:49;2.23;;;2.13;;
15878;SDS011;61999;51.514;14.614;2023-04-15T14:11:18;2.73;;;2.47;;
15878;SDS011;61999;51.514;14.614;2023-04-15T14:13:46;6.40;;;5.80;;
15878;SDS011;61999;51.514;14.614;2023-04-15T14:16:14;2.90;;;2.70;;
15878;SDS011;61999;51.514;14.614;2023-04-15T14:18:42;3.13;;;2.93;;
15878;SDS011;61999;51.514;14.614;2023-04-15T14:21:11;4.00;;;3.60;;
15878;SDS011;61999;51.514;14.614;2023-04-15T14:23:39;4.80;;;4.30;;
15878;SDS011;61999;51.514;14.614;2023-04-15T14:26:08;4.00;;;3.70;;
15878;SDS011;61999;51.514;14.614;2023-04-15T14:28:36;4.70;;;4.40;;
15878;SDS011;61999;51.514;14.614;2023-04-15T14:31:04;4.03;;;3.63;;
15878;SDS011;61999;51.514;14.614;2023-04-15T14:33:32;4.27;;;3.97;;
15878;SDS011;61999;51.514;14.614;2023-04-15T14:36:00;3.90;;;2.23;;
15878;SDS011;61999;51.514;14.614;2023-04-15T14:38:28;4.00;;;3.60;;
15878;SDS011;61999;51.514;14.614;2023-04-15T14:40:58;2.90;;;2.70;;